createdAt,value
2023-02-22T00:00:28.110Z,63.78
2023-02-22T00:03:01.094Z,64.15
2023-02-22T00:05:35.472Z,64.05
2023-02-22T00:08:10.221Z,64.14
2023-02-22T00:10:43.199Z,64.25
2023-02-22T00:13:16.147Z,64.18
2023-02-22T00:15:49.084Z,64.45
2023-02-22T00:18:21.980Z,64.49
2023-02-22T00:20:56.292Z,64.95
2023-02-22T00:23:30.676Z,64.84
2023-02-22T00:26:03.702Z,64.48
2023-02-22T00:28:36.967Z,64.74
2023-02-22T00:31:09.968Z,64.26
2023-02-22T00:33:43.252Z,64.50
2023-02-22T00:36:17.610Z,64.49
2023-02-22T00:38:50.567Z,63.97
2023-02-22T00:41:24.020Z,64.31
2023-02-22T00:43:56.944Z,63.99
2023-02-22T00:46:29.818Z,64.20
2023-02-22T00:49:03.681Z,63.87
2023-02-22T00:51:38.117Z,63.93
2023-02-22T00:54:12.118Z,64.23
2023-02-22T00:56:45.357Z,64.14
2023-02-22T00:59:18.242Z,64.00
2023-02-22T01:01:51.290Z,63.93
2023-02-22T01:04:24.457Z,64.11
2023-02-22T01:07:00.778Z,64.38
2023-02-22T01:09:34.934Z,64.17
2023-02-22T01:12:08.918Z,64.09
2023-02-22T01:14:42.453Z,64.35
2023-02-22T01:17:15.422Z,64.31
2023-02-22T01:19:48.370Z,64.45
2023-02-22T01:22:23.365Z,64.51
2023-02-22T01:24:56.348Z,64.66
2023-02-22T01:27:29.311Z,64.55
2023-02-22T01:30:02.189Z,64.58
2023-02-22T01:32:35.695Z,64.33
2023-02-22T01:35:13.714Z,64.24
2023-02-22T01:37:48.132Z,64.50
2023-02-22T01:40:26.186Z,64.00
2023-02-22T01:43:02.056Z,64.15
2023-02-22T01:45:49.359Z,64.37
2023-02-22T01:48:29.361Z,64.43
2023-02-22T01:51:11.207Z,64.05
2023-02-22T01:53:47.522Z,64.17
2023-02-22T01:56:22.080Z,63.85
2023-02-22T01:59:01.023Z,64.23
2023-02-22T02:01:34.805Z,64.26
2023-02-22T02:04:11.302Z,64.16
2023-02-22T02:06:45.129Z,64.44
2023-02-22T02:09:25.749Z,65.06
2023-02-22T02:12:03.090Z,64.73
2023-02-22T02:14:41.074Z,64.86
2023-02-22T02:17:16.549Z,64.62
2023-02-22T02:19:59.414Z,64.74
2023-02-22T02:22:42.871Z,64.68
2023-02-22T02:25:46.512Z,64.83
2023-02-22T02:28:44.663Z,64.80
2023-02-22T02:31:47.522Z,64.93
2023-02-22T02:34:29.262Z,64.81
2023-02-22T02:37:12.404Z,64.50
2023-02-22T02:39:52.608Z,64.74
2023-02-22T02:42:32.455Z,64.39
2023-02-22T02:45:11.024Z,64.65
2023-02-22T02:47:48.420Z,64.58
2023-02-22T02:50:27.649Z,64.72
2023-02-22T02:53:06.009Z,64.92
2023-02-22T02:55:39.049Z,64.72
2023-02-22T02:58:20.227Z,64.89
2023-02-22T03:00:57.611Z,64.81
2023-02-22T03:03:47.672Z,65.04
2023-02-22T03:06:44.249Z,65.02
2023-02-22T03:09:28.262Z,64.82
2023-02-22T03:12:14.750Z,64.79
2023-02-22T03:15:00.394Z,64.97
2023-02-22T03:17:42.516Z,64.80
2023-02-22T03:20:23.591Z,64.81
2023-02-22T03:23:03.574Z,64.91
2023-02-22T03:25:41.400Z,64.91
2023-02-22T03:28:18.937Z,64.94
2023-02-22T03:30:56.072Z,64.98
2023-02-22T03:33:36.432Z,65.07
2023-02-22T03:36:16.417Z,65.08
2023-02-22T03:38:55.598Z,65.06
2023-02-22T03:41:30.258Z,64.97
2023-02-22T03:44:06.552Z,65.17
2023-02-22T03:46:41.889Z,65.03
2023-02-22T03:49:21.345Z,65.16
2023-02-22T03:51:54.656Z,65.05
2023-02-22T03:54:29.571Z,65.05
2023-02-22T03:57:13.344Z,65.25
2023-02-22T03:59:47.303Z,64.97
2023-02-22T04:02:20.479Z,65.24
2023-02-22T04:04:53.464Z,65.13
2023-02-22T04:07:26.437Z,65.40
2023-02-22T04:10:02.835Z,65.68
2023-02-22T04:12:36.067Z,65.68
2023-02-22T04:15:11.075Z,65.72
2023-02-22T04:17:44.086Z,65.64
2023-02-22T04:20:19.934Z,65.87
2023-02-22T04:22:53.668Z,65.59
2023-02-22T04:25:28.062Z,66.09
2023-02-22T04:28:00.951Z,66.08
2023-02-22T04:30:33.865Z,65.95
2023-02-22T04:33:06.876Z,65.98
2023-02-22T04:35:39.983Z,65.69
2023-02-22T04:38:12.928Z,66.12
2023-02-22T04:40:47.296Z,66.17
2023-02-22T04:43:20.618Z,66.16
2023-02-22T04:45:53.627Z,66.20
2023-02-22T04:48:26.543Z,66.24
2023-02-22T04:50:59.458Z,66.34
2023-02-22T04:53:32.492Z,66.07
2023-02-22T04:56:08.052Z,66.28
2023-02-22T04:58:41.068Z,66.22
2023-02-22T05:01:15.461Z,66.00
2023-02-22T05:03:48.614Z,66.25
2023-02-22T05:06:21.599Z,66.31
2023-02-22T05:08:54.500Z,66.10
2023-02-22T05:11:29.045Z,66.39
2023-02-22T05:14:01.955Z,65.95
2023-02-22T05:16:36.068Z,66.01
2023-02-22T05:19:09.536Z,65.99
2023-02-22T05:21:42.683Z,65.98
2023-02-22T05:24:15.503Z,66.06
2023-02-22T05:26:51.362Z,66.00
2023-02-22T05:29:24.255Z,65.73
2023-02-22T05:31:58.284Z,65.83
2023-02-22T05:34:31.408Z,65.65
2023-02-22T05:37:04.678Z,65.61
2023-02-22T05:39:37.582Z,65.74
2023-02-22T05:42:12.017Z,66.10
2023-02-22T05:44:44.874Z,65.86
2023-02-22T05:47:18.301Z,66.15
2023-02-22T05:49:51.141Z,66.06
2023-02-22T05:52:24.483Z,65.87
2023-02-22T05:54:57.384Z,65.88
2023-02-22T05:57:31.681Z,65.71
2023-02-22T06:00:06.939Z,65.75
2023-02-22T06:02:39.807Z,65.34
2023-02-22T06:05:12.921Z,65.40
2023-02-22T06:07:45.801Z,65.65
2023-02-22T06:10:20.282Z,65.29
2023-02-22T06:12:55.659Z,65.21
2023-02-22T06:15:29.785Z,65.54
2023-02-22T06:18:03.609Z,65.26
2023-02-22T06:20:36.503Z,65.42
2023-02-22T06:23:09.399Z,65.18
2023-02-22T06:25:42.243Z,64.74
2023-02-22T06:28:16.595Z,64.73
2023-02-22T06:30:49.574Z,65.02
2023-02-22T06:33:22.474Z,65.00
2023-02-22T06:35:55.422Z,64.63
2023-02-22T06:38:29.288Z,64.96
2023-02-22T06:41:02.935Z,65.08
2023-02-22T06:43:37.373Z,64.92
2023-02-22T06:46:11.654Z,64.94
2023-02-22T06:48:44.548Z,64.44
2023-02-22T06:51:17.758Z,64.31
2023-02-22T06:53:50.788Z,64.27
2023-02-22T06:56:23.808Z,64.35
2023-02-22T06:58:58.058Z,64.99
2023-02-22T07:01:31.547Z,64.40
2023-02-22T07:04:04.780Z,64.71
2023-02-22T07:06:37.672Z,64.32
2023-02-22T07:09:10.625Z,64.66
2023-02-22T07:11:43.554Z,64.40
2023-02-22T07:14:19.682Z,64.57
2023-02-22T07:16:52.800Z,64.32
2023-02-22T07:19:25.809Z,64.73
2023-02-22T07:21:59.464Z,64.60
2023-02-22T07:24:35.106Z,64.93
2023-02-22T07:27:08.028Z,64.30
2023-02-22T07:29:44.061Z,65.21
2023-02-22T07:32:16.938Z,64.37
2023-02-22T07:34:49.945Z,64.95
2023-02-22T07:37:22.757Z,64.80
2023-02-22T07:39:55.700Z,64.92
2023-02-22T07:42:28.536Z,64.33
2023-02-22T07:45:03.086Z,64.13
2023-02-22T07:47:36.012Z,64.78
2023-02-22T07:50:09.163Z,64.40
2023-02-22T07:52:42.046Z,63.84
2023-02-22T07:55:17.891Z,64.37
2023-02-22T07:57:52.633Z,63.60
2023-02-22T08:00:29.548Z,64.10
2023-02-22T08:03:03.948Z,63.85
2023-02-22T08:05:39.263Z,64.15
2023-02-22T08:08:12.495Z,63.69
2023-02-22T08:10:45.764Z,63.88
2023-02-22T08:13:20.623Z,63.51
2023-02-22T08:15:55.429Z,63.35
2023-02-22T08:18:28.300Z,62.76
2023-02-22T08:21:01.167Z,63.00
2023-02-22T08:23:34.095Z,62.86
2023-02-22T08:26:08.619Z,62.68
2023-02-22T08:28:41.581Z,62.31
2023-02-22T08:31:16.313Z,62.38
2023-02-22T08:33:50.469Z,62.32
2023-02-22T08:36:23.586Z,61.69
2023-02-22T08:38:56.551Z,62.25
2023-02-22T08:41:30.402Z,61.96
2023-02-22T08:44:03.365Z,61.73
2023-02-22T08:46:38.977Z,61.42
2023-02-22T08:49:11.848Z,61.06
2023-02-22T08:51:44.787Z,61.00
2023-02-22T08:54:18.653Z,60.75
2023-02-22T08:56:51.621Z,60.45
2023-02-22T08:59:24.650Z,60.79
2023-02-22T09:01:59.106Z,60.34
2023-02-22T09:04:32.066Z,59.99
2023-02-22T09:07:04.958Z,59.55
2023-02-22T09:09:38.171Z,59.57
2023-02-22T09:12:11.627Z,59.59
2023-02-22T09:14:44.503Z,59.31
2023-02-22T09:17:19.014Z,59.44
2023-02-22T09:19:51.964Z,58.74
2023-02-22T09:22:24.836Z,59.27
2023-02-22T09:25:00.224Z,58.30
2023-02-22T09:27:33.214Z,57.89
2023-02-22T09:30:06.636Z,58.00
2023-02-22T09:32:41.196Z,57.83
2023-02-22T09:35:14.201Z,57.44
2023-02-22T09:37:47.239Z,57.79
2023-02-22T09:40:25.147Z,57.31
2023-02-22T09:43:09.384Z,57.36
2023-02-22T09:45:59.087Z,57.51
2023-02-22T09:48:36.122Z,57.64
2023-02-22T09:51:16.947Z,56.84
2023-02-22T09:53:52.414Z,57.14
2023-02-22T09:56:26.936Z,57.24
2023-02-22T09:59:04.702Z,56.95
2023-02-22T10:01:43.450Z,57.66
2023-02-22T10:04:23.470Z,57.44
2023-02-22T10:07:07.019Z,56.86
2023-02-22T10:09:43.344Z,57.81
2023-02-22T10:12:24.507Z,57.39
2023-02-22T10:15:23.173Z,57.40
2023-02-22T10:18:05.099Z,57.50
2023-02-22T10:20:49.057Z,58.15
2023-02-22T10:23:31.123Z,57.67
2023-02-22T10:26:16.027Z,58.08
2023-02-22T10:28:55.666Z,57.81
2023-02-22T10:31:33.673Z,58.08
2023-02-22T10:34:13.022Z,57.64
2023-02-22T10:36:51.331Z,57.56
2023-02-22T10:39:29.727Z,57.55
2023-02-22T10:42:06.948Z,57.86
2023-02-22T10:44:41.727Z,57.09
2023-02-22T10:47:18.296Z,57.48
2023-02-22T10:49:55.654Z,57.03
2023-02-22T10:52:33.873Z,56.79
2023-02-22T10:55:15.735Z,57.22
2023-02-22T10:57:51.926Z,56.90
2023-02-22T11:00:37.585Z,56.35
2023-02-22T11:03:19.504Z,56.38
2023-02-22T11:05:52.625Z,57.86
2023-02-22T11:08:30.795Z,56.46
2023-02-22T11:11:24.650Z,56.97
2023-02-22T11:13:59.583Z,56.64
2023-02-22T11:16:36.219Z,56.43
2023-02-22T11:19:20.708Z,56.32
2023-02-22T11:21:57.028Z,55.71
2023-02-22T11:24:43.568Z,56.09
2023-02-22T11:27:31.749Z,55.82
2023-02-22T11:30:26.972Z,55.62
2023-02-22T11:33:06.200Z,55.50
2023-02-22T11:35:50.315Z,55.16
2023-02-22T11:38:25.617Z,55.45
2023-02-22T11:41:17.958Z,54.75
2023-02-22T11:43:52.430Z,55.36
2023-02-22T11:46:29.072Z,55.04
2023-02-22T11:49:05.456Z,55.21
2023-02-22T11:51:54.519Z,55.04
2023-02-22T11:54:53.406Z,55.00
2023-02-22T11:57:51.589Z,54.15
2023-02-22T12:00:33.475Z,54.42
2023-02-22T12:03:28.931Z,54.17
2023-02-22T12:06:14.276Z,53.84
2023-02-22T12:09:01.875Z,53.74
2023-02-22T12:11:41.223Z,53.73
2023-02-22T12:14:27.236Z,52.93
2023-02-22T12:17:14.310Z,52.87
2023-02-22T12:19:51.425Z,53.54
2023-02-22T12:22:27.875Z,52.96
2023-02-22T12:25:10.034Z,52.78
2023-02-22T12:27:49.272Z,52.40
2023-02-22T12:30:28.869Z,52.03
2023-02-22T12:33:06.579Z,52.12
2023-02-22T12:35:46.222Z,51.96
2023-02-22T12:38:24.683Z,51.95
2023-02-22T12:41:04.478Z,52.43
2023-02-22T12:43:43.001Z,52.31
2023-02-22T12:46:21.714Z,52.06
2023-02-22T12:49:02.091Z,51.98
2023-02-22T12:51:45.126Z,51.75
2023-02-22T12:54:26.371Z,51.69
2023-02-22T12:57:05.909Z,51.63
2023-02-22T12:59:45.321Z,51.64
2023-02-22T13:02:23.873Z,51.77
2023-02-22T13:04:57.020Z,51.97
2023-02-22T13:07:41.583Z,50.76
2023-02-22T13:10:36.158Z,50.75
2023-02-22T13:13:19.868Z,50.49
2023-02-22T13:16:01.039Z,50.73
2023-02-22T13:18:40.974Z,50.89
2023-02-22T13:21:20.693Z,50.27
2023-02-22T13:24:04.746Z,50.34
2023-02-22T13:26:46.237Z,50.64
2023-02-22T13:29:23.606Z,50.31
2023-02-22T13:32:09.664Z,50.06
2023-02-22T13:35:03.238Z,50.58
2023-02-22T13:38:10.810Z,50.93
2023-02-22T13:41:05.401Z,50.04
2023-02-22T13:44:08.679Z,50.51
2023-02-22T13:47:08.733Z,50.62
2023-02-22T13:50:14.942Z,50.56
2023-02-22T13:52:52.478Z,50.96
2023-02-22T13:55:32.734Z,51.01
2023-02-22T13:58:08.246Z,50.79
2023-02-22T14:00:45.854Z,51.23
2023-02-22T14:03:41.352Z,50.58
2023-02-22T14:06:39.209Z,51.36
2023-02-22T14:09:20.046Z,50.95
2023-02-22T14:11:56.795Z,51.08
2023-02-22T14:14:29.754Z,51.29
2023-02-22T14:17:27.192Z,51.21
2023-02-22T14:20:32.241Z,51.38
2023-02-22T14:23:31.173Z,51.19
2023-02-22T14:26:19.075Z,50.80
2023-02-22T14:28:57.135Z,51.34
2023-02-22T14:31:37.366Z,51.10
2023-02-22T14:34:12.622Z,51.41
2023-02-22T14:36:52.344Z,51.35
2023-02-22T14:39:32.644Z,51.38
2023-02-22T14:42:12.763Z,51.15
2023-02-22T14:44:55.141Z,51.39
2023-02-22T14:47:32.924Z,51.53
2023-02-22T14:50:14.130Z,51.59
2023-02-22T14:52:50.027Z,51.52
2023-02-22T14:55:26.909Z,51.17
2023-02-22T14:58:09.716Z,51.33
2023-02-22T15:00:45.931Z,51.72
2023-02-22T15:03:29.149Z,51.66
2023-02-22T15:06:07.566Z,51.96
2023-02-22T15:08:41.750Z,51.90
2023-02-22T15:11:22.573Z,51.36
2023-02-22T15:13:57.867Z,51.86
2023-02-22T15:16:34.963Z,51.89
2023-02-22T15:19:08.742Z,51.93
2023-02-22T15:21:47.373Z,51.83
2023-02-22T15:24:23.688Z,51.71
2023-02-22T15:27:02.082Z,51.54
2023-02-22T15:29:40.190Z,51.77
2023-02-22T15:32:21.312Z,51.62
2023-02-22T15:34:56.558Z,51.76
2023-02-22T15:37:29.436Z,51.74
2023-02-22T15:40:14.482Z,51.45
2023-02-22T15:42:49.702Z,51.82
2023-02-22T15:45:26.282Z,52.18
2023-02-22T15:47:59.908Z,51.95
2023-02-22T15:50:35.648Z,51.84
2023-02-22T15:53:24.987Z,51.97
2023-02-22T15:56:00.703Z,51.97
2023-02-22T15:58:33.755Z,51.94
2023-02-22T16:01:11.163Z,52.06
2023-02-22T16:03:49.123Z,52.22
2023-02-22T16:06:30.245Z,51.96
2023-02-22T16:09:09.334Z,52.07
2023-02-22T16:11:44.324Z,52.31
2023-02-22T16:14:28.421Z,52.14
2023-02-22T16:17:30.930Z,52.18
2023-02-22T16:20:35.531Z,52.29
2023-02-22T16:23:26.220Z,52.48
2023-02-22T16:26:20.940Z,52.61
2023-02-22T16:28:56.323Z,52.97
2023-02-22T16:31:33.714Z,52.94
2023-02-22T16:34:10.453Z,53.26
2023-02-22T16:36:45.610Z,53.17
2023-02-22T16:39:23.625Z,53.23
2023-02-22T16:41:58.563Z,53.34
2023-02-22T16:44:31.466Z,53.57
2023-02-22T16:47:04.372Z,53.79
2023-02-22T16:49:39.602Z,54.04
2023-02-22T16:52:13.078Z,54.15
2023-02-22T16:54:47.348Z,54.53
2023-02-22T16:57:23.149Z,54.70
2023-02-22T16:59:56.150Z,54.82
2023-02-22T17:02:29.043Z,54.91
2023-02-22T17:05:03.371Z,55.40
2023-02-22T17:07:36.358Z,55.12
2023-02-22T17:10:09.724Z,55.27
2023-02-22T17:12:43.997Z,55.65
2023-02-22T17:15:23.340Z,55.59
2023-02-22T17:17:57.604Z,56.04
2023-02-22T17:20:33.410Z,55.86
2023-02-22T17:23:09.097Z,55.93
2023-02-22T17:25:44.717Z,56.49
2023-02-22T17:28:17.978Z,56.38
2023-02-22T17:30:51.730Z,56.70
2023-02-22T17:33:27.008Z,57.01
2023-02-22T17:36:03.567Z,56.89
2023-02-22T17:38:36.561Z,56.82
2023-02-22T17:41:09.676Z,57.40
2023-02-22T17:43:42.590Z,57.37
2023-02-22T17:46:15.968Z,57.68
2023-02-22T17:48:49.311Z,57.79
2023-02-22T17:51:25.940Z,57.93
2023-02-22T17:53:58.848Z,57.85
2023-02-22T17:56:32.082Z,57.68
2023-02-22T17:59:08.047Z,58.08
2023-02-22T18:01:44.372Z,58.24
2023-02-22T18:06:52.531Z,58.22
2023-02-22T18:09:25.434Z,58.23
2023-02-22T18:11:58.387Z,58.07
2023-02-22T18:14:31.280Z,58.20
2023-02-22T18:17:04.262Z,58.19
2023-02-22T18:19:37.161Z,58.35
2023-02-22T18:22:12.004Z,58.45
2023-02-22T18:24:44.860Z,58.76
2023-02-22T18:27:17.943Z,58.71
2023-02-22T18:29:50.880Z,58.58
2023-02-22T18:32:24.273Z,58.76
2023-02-22T18:34:57.198Z,59.30
2023-02-22T18:37:31.712Z,58.94
2023-02-22T18:40:10.276Z,59.30
2023-02-22T18:42:43.318Z,59.13
2023-02-22T18:45:17.211Z,59.81
2023-02-22T18:47:50.384Z,59.56
2023-02-22T18:50:23.241Z,59.88
2023-02-22T18:52:57.485Z,59.61
2023-02-22T18:55:30.301Z,60.00
2023-02-22T18:58:04.841Z,59.57
2023-02-22T19:00:38.249Z,59.45
2023-02-22T19:03:11.166Z,59.67
2023-02-22T19:05:44.125Z,60.00
2023-02-22T19:08:18.481Z,59.92
2023-02-22T19:10:51.334Z,60.12
2023-02-22T19:13:24.231Z,59.98
2023-02-22T19:15:57.247Z,59.38
2023-02-22T19:18:31.122Z,59.38
2023-02-22T19:21:08.690Z,59.85
2023-02-22T19:23:45.720Z,59.70
2023-02-22T19:26:20.461Z,59.42
2023-02-22T19:28:55.182Z,59.53
2023-02-22T19:31:31.708Z,59.56
2023-02-22T19:34:08.950Z,59.54
2023-02-22T19:36:44.966Z,59.74
2023-02-22T19:41:53.954Z,59.84
2023-02-22T19:44:28.561Z,59.68
2023-02-22T19:47:01.433Z,59.66
2023-02-22T19:49:35.406Z,59.95
2023-02-22T19:52:08.353Z,59.75
2023-02-22T19:54:42.914Z,59.87
2023-02-22T19:57:15.880Z,59.41
2023-02-22T19:59:49.502Z,59.89
2023-02-22T20:02:27.235Z,59.74
2023-02-22T20:05:00.364Z,59.96
2023-02-22T20:07:33.330Z,59.62
2023-02-22T20:10:08.348Z,59.95
2023-02-22T20:12:41.317Z,59.58
2023-02-22T20:15:14.242Z,59.73
2023-02-22T20:17:50.405Z,59.45
2023-02-22T20:20:24.208Z,59.65
2023-02-22T20:22:57.170Z,59.69
2023-02-22T20:25:31.501Z,59.68
2023-02-22T20:28:05.612Z,60.12
2023-02-22T20:30:39.857Z,59.85
2023-02-22T20:33:13.951Z,59.76
2023-02-22T20:35:47.727Z,59.78
2023-02-22T20:38:20.604Z,59.64
2023-02-22T20:40:54.953Z,59.93
2023-02-22T20:43:27.934Z,59.84
2023-02-22T20:46:02.370Z,60.09
2023-02-22T20:48:35.873Z,60.06
2023-02-22T20:51:10.134Z,60.43
2023-02-22T20:53:45.017Z,60.62
2023-02-22T20:56:21.738Z,60.63
2023-02-22T20:58:57.287Z,60.75
2023-02-22T21:01:31.204Z,61.32
2023-02-22T21:04:06.339Z,61.19
2023-02-22T21:06:40.413Z,60.98
2023-02-22T21:09:15.732Z,61.50
2023-02-22T21:11:50.387Z,61.37
2023-02-22T21:14:24.462Z,61.22
2023-02-22T21:16:57.426Z,61.07
2023-02-22T21:19:32.140Z,61.58
2023-02-22T21:22:08.439Z,61.22
2023-02-22T21:24:41.695Z,61.60
2023-02-22T21:27:16.978Z,61.63
2023-02-22T21:29:50.276Z,61.80
2023-02-22T21:32:23.295Z,61.37
2023-02-22T21:34:56.174Z,61.62
2023-02-22T21:37:29.155Z,61.48
2023-02-22T21:40:02.083Z,61.44
2023-02-22T21:42:37.491Z,62.34
2023-02-22T21:45:12.479Z,62.16
2023-02-22T21:47:46.362Z,61.54
2023-02-22T21:50:20.314Z,62.08
2023-02-22T21:52:53.281Z,61.76
2023-02-22T21:55:26.175Z,62.27
2023-02-22T21:58:00.562Z,62.23
2023-02-22T22:00:38.363Z,62.32
2023-02-22T22:03:14.349Z,62.88
2023-02-22T22:05:48.832Z,62.87
2023-02-22T22:08:21.880Z,62.64
2023-02-22T22:10:55.439Z,63.03
2023-02-22T22:13:29.779Z,63.13
2023-02-22T22:16:05.896Z,63.30
2023-02-22T22:18:41.205Z,62.70
2023-02-22T22:21:17.710Z,62.56
2023-02-22T22:23:54.498Z,62.63
2023-02-22T22:26:27.575Z,63.03
2023-02-22T22:29:04.391Z,63.10
2023-02-22T22:31:37.534Z,63.31
2023-02-22T22:34:10.471Z,63.10
2023-02-22T22:36:43.399Z,63.04
2023-02-22T22:39:16.621Z,63.02
2023-02-22T22:41:49.696Z,63.18
2023-02-22T22:44:24.081Z,63.75
2023-02-22T22:46:56.972Z,63.66
2023-02-22T22:49:31.524Z,63.65
2023-02-22T22:52:04.559Z,63.47
2023-02-22T22:54:38.367Z,63.15
2023-02-22T22:57:12.322Z,62.92
2023-02-22T22:59:47.084Z,63.08
2023-02-22T23:02:20.484Z,63.04
2023-02-22T23:04:53.606Z,63.70
2023-02-22T23:07:26.690Z,62.83
2023-02-22T23:09:59.736Z,63.40
2023-02-22T23:12:32.762Z,63.09
2023-02-22T23:15:08.349Z,63.63
2023-02-22T23:17:42.546Z,63.86
2023-02-22T23:20:15.858Z,63.62
2023-02-22T23:22:48.756Z,63.99
2023-02-22T23:25:22.661Z,63.54
2023-02-22T23:27:55.743Z,63.42
2023-02-22T23:30:30.833Z,63.97
2023-02-22T23:33:03.744Z,63.60
2023-02-22T23:35:36.930Z,63.75
2023-02-22T23:38:11.248Z,64.06
2023-02-22T23:40:46.102Z,63.34
2023-02-22T23:43:21.873Z,64.07
2023-02-22T23:45:57.624Z,64.23
2023-02-22T23:48:30.711Z,63.71
2023-02-22T23:51:09.208Z,63.49
2023-02-22T23:53:45.979Z,63.59
2023-02-22T23:56:22.054Z,64.00
2023-02-22T23:58:57.539Z,64.01
